createdAt,value
2023-08-19T00:00:22.203Z,17.58
2023-08-19T00:10:22.126Z,17.38
2023-08-19T00:20:22.105Z,17.4
2023-08-19T00:30:22.171Z,17.3
2023-08-19T00:40:21.988Z,17.23
2023-08-19T00:50:22.124Z,17.11
2023-08-19T01:00:21.985Z,17.01
2023-08-19T01:10:22.073Z,16.8
2023-08-19T01:20:21.950Z,16.8
2023-08-19T01:30:21.973Z,16.84
2023-08-19T01:40:22.063Z,16.78
2023-08-19T01:50:21.908Z,16.58
2023-08-19T02:00:22.047Z,16.52
2023-08-19T02:10:21.999Z,16.43
2023-08-19T02:20:21.998Z,16.34
2023-08-19T02:30:21.884Z,16.39
2023-08-19T02:40:21.890Z,16.36
2023-08-19T02:50:21.981Z,16.41
2023-08-19T03:00:21.874Z,16.34
2023-08-19T03:10:21.994Z,16.28
2023-08-19T03:20:21.870Z,16.04
2023-08-19T03:30:21.816Z,15.91
2023-08-19T03:40:21.841Z,16.01
2023-08-19T03:50:21.897Z,16.1
2023-08-19T04:00:21.786Z,15.96
2023-08-19T04:10:21.894Z,15.83
2023-08-19T04:20:21.904Z,15.83
2023-08-19T04:30:21.920Z,15.83
2023-08-19T04:40:21.803Z,15.82
2023-08-19T04:50:21.942Z,15.88
2023-08-19T05:00:21.772Z,15.99
2023-08-19T05:10:21.853Z,16.24
2023-08-19T05:20:21.720Z,16.45
2023-08-19T05:30:21.748Z,16.65
2023-08-19T05:40:21.815Z,16.99
2023-08-19T05:50:21.800Z,17.57
2023-08-19T06:00:21.710Z,17.93
2023-08-19T06:10:21.698Z,18.66
2023-08-19T06:20:21.640Z,19.48
2023-08-19T06:30:21.670Z,20.2
2023-08-19T06:40:21.746Z,20.34
2023-08-19T06:50:21.759Z,20.62
2023-08-19T07:00:21.629Z,21.32
2023-08-19T07:10:21.641Z,22.4
2023-08-19T07:20:21.586Z,22.14
2023-08-19T07:30:21.566Z,22.24
2023-08-19T07:40:21.601Z,22.55
2023-08-19T07:50:21.685Z,22.57
2023-08-19T08:00:21.564Z,22.81
2023-08-19T08:10:21.683Z,22.86
2023-08-19T08:20:21.514Z,23.32
2023-08-19T08:30:21.564Z,23.93
2023-08-19T08:40:21.522Z,24.07
2023-08-19T08:50:21.508Z,23.78
2023-08-19T09:00:21.720Z,24.34
2023-08-19T09:10:21.757Z,24.77
2023-08-19T09:20:21.562Z,25.05
2023-08-19T09:30:21.550Z,25.88
2023-08-19T09:40:21.428Z,26.5
2023-08-19T09:50:21.474Z,27.02
2023-08-19T10:00:21.547Z,27.54
2023-08-19T10:10:21.554Z,27.65
2023-08-19T10:20:21.556Z,28.15
2023-08-19T10:30:21.540Z,28.48
2023-08-19T10:40:21.484Z,28.73
2023-08-19T10:50:21.503Z,29.05
2023-08-19T11:00:21.321Z,29.23
2023-08-19T11:10:21.328Z,29.33
2023-08-19T11:20:21.371Z,29.75
2023-08-19T11:30:21.441Z,30.39
2023-08-19T11:40:29.426Z,30.23
2023-08-19T11:50:21.379Z,30.57
2023-08-19T12:00:21.476Z,31.35
2023-08-19T12:10:21.285Z,31.03
2023-08-19T12:20:21.357Z,30.92
2023-08-19T12:30:21.500Z,31.3
2023-08-19T12:40:21.356Z,31.73
2023-08-19T12:50:21.252Z,31.49
2023-08-19T13:00:21.351Z,31.46
2023-08-19T13:10:21.344Z,31.56
2023-08-19T13:20:21.199Z,31.47
2023-08-19T13:30:21.372Z,31.35
2023-08-19T13:40:21.299Z,31.3
2023-08-19T13:50:21.655Z,31.18
2023-08-19T14:00:21.320Z,31.02
2023-08-19T14:10:21.281Z,31.49
2023-08-19T14:20:21.117Z,30.1
2023-08-19T14:30:21.190Z,29.79
2023-08-19T14:40:21.240Z,29.5
2023-08-19T14:50:21.097Z,29.36
2023-08-19T15:00:21.136Z,29.54
2023-08-19T15:10:21.207Z,29.39
2023-08-19T15:20:21.086Z,29.39
2023-08-19T15:30:21.168Z,29.5
2023-08-19T15:40:21.057Z,29.32
2023-08-19T15:50:21.024Z,29.7
2023-08-19T16:00:21.008Z,30.66
2023-08-19T16:10:21.019Z,31.3
2023-08-19T16:20:21.002Z,31.22
2023-08-19T16:30:21.028Z,31.12
2023-08-19T16:40:20.998Z,31.25
2023-08-19T16:50:20.991Z,31.02
2023-08-19T17:00:20.965Z,30.61
2023-08-19T17:10:22.123Z,30.31
2023-08-19T17:20:21.063Z,29.54
2023-08-19T17:30:21.059Z,28.25
2023-08-19T17:40:20.920Z,27.34
2023-08-19T17:50:21.014Z,26.68
2023-08-19T18:00:21.128Z,25.78
2023-08-19T18:10:20.977Z,25.03
2023-08-19T18:20:20.910Z,24.39
2023-08-19T18:30:20.869Z,23.87
2023-08-19T18:40:20.843Z,23.58
2023-08-19T18:50:20.879Z,22.97
2023-08-19T19:00:21.074Z,22.63
2023-08-19T19:10:20.987Z,22.33
2023-08-19T19:20:20.909Z,21.86
2023-08-19T19:30:20.998Z,21.52
2023-08-19T19:40:20.929Z,21.14
2023-08-19T19:50:20.901Z,20.97
2023-08-19T20:00:20.925Z,20.77
2023-08-19T20:10:27.593Z,20.5
2023-08-19T20:20:20.902Z,20.54
2023-08-19T20:30:20.856Z,20.49
2023-08-19T20:40:20.951Z,20.14
2023-08-19T20:50:20.813Z,19.77
2023-08-19T21:00:20.801Z,19.69
2023-08-19T21:10:20.712Z,19.68
2023-08-19T21:20:21.034Z,19.44
2023-08-19T21:30:20.790Z,19.17
2023-08-19T21:40:20.708Z,19.04
2023-08-19T21:50:20.782Z,18.91
2023-08-19T22:00:20.672Z,18.77
2023-08-19T22:10:20.822Z,18.59
2023-08-19T22:20:20.727Z,18.82
2023-08-19T22:30:20.832Z,18.65
2023-08-19T22:40:20.800Z,18.64
2023-08-19T22:50:20.685Z,18.55
2023-08-19T23:00:20.699Z,18.31
2023-08-19T23:10:20.835Z,18.3
2023-08-19T23:30:20.740Z,17.87
2023-08-19T23:40:20.511Z,17.97
2023-08-19T23:50:20.645Z,17.84
